Time;durP1;ratioP1;P1;durP2;ratioP2;P2;SDS_P1;SDS_P2;PMS_P1;PMS_P2;Temp;Humidity;BMP_temperature;BMP_pressure;BME280_temperature;BME280_humidity;BME280_pressure;Samples;Min_cycle;Max_cycle;Signal;HPM_P1;HPM_P2
2023/04/10 00:03:16;;;;;;;12.57;11.37;;;8.50;89.30;;;;;;10379543;28;20213;-81
2023/04/10 00:08:18;;;;;;;13.90;12.60;;;8.40;89.20;;;;;;10379151;28;20223;-82
2023/04/10 00:13:20;;;;;;;11.97;10.77;;;8.40;89.60;;;;;;10379896;28;20569;-81
2023/04/10 00:18:24;;;;;;;12.80;11.63;;;8.30;90.00;;;;;;10379437;28;20242;-81
2023/04/10 00:23:26;;;;;;;11.87;10.87;;;8.30;90.00;;;;;;10381965;28;20198;-80
2023/04/10 00:28:28;;;;;;;12.40;11.30;;;8.20;90.10;;;;;;10379341;28;20236;-80
2023/04/10 00:33:31;;;;;;;13.60;12.30;;;8.20;90.30;;;;;;10377013;28;20345;-82
2023/04/10 00:38:34;;;;;;;12.80;11.60;;;8.10;90.30;;;;;;10376335;28;20263;-81
2023/04/10 00:43:36;;;;;;;14.17;12.90;;;8.10;90.20;;;;;;10376748;28;20215;-82
2023/04/10 00:48:40;;;;;;;13.17;11.93;;;8.00;90.30;;;;;;10378118;28;20294;-81
2023/04/10 00:53:42;;;;;;;13.87;12.37;;;8.00;90.50;;;;;;10378460;28;20215;-82
2023/04/10 00:58:44;;;;;;;13.00;11.80;;;7.90;90.60;;;;;;10381220;28;20222;-81
2023/04/10 01:03:47;;;;;;;13.23;12.03;;;7.90;90.80;;;;;;10378334;28;20195;-82
2023/04/10 01:08:56;;;;;;;15.93;14.23;;;7.90;90.60;;;;;;10386270;28;20279;-80
2023/04/10 01:14:07;;;;;;;14.23;12.93;;;7.80;91.00;;;;;;10384787;28;20243;-83
2023/04/10 01:19:21;;;;;;;19.50;17.40;;;7.90;90.80;;;;;;10376297;28;20671;-81
2023/04/10 01:24:41;;;;;;;20.33;18.20;;;7.90;90.90;;;;;;10374523;28;20265;-80
2023/04/10 01:29:49;;;;;;;14.67;13.20;;;7.90;91.30;;;;;;10374101;28;20374;-81
2023/04/10 01:34:54;;;;;;;14.90;13.50;;;7.90;91.20;;;;;;10374260;28;20280;-81
2023/04/10 01:40:05;;;;;;;12.67;11.50;;;7.90;90.70;;;;;;10373086;28;20639;-82
2023/04/10 01:45:16;;;;;;;12.20;11.10;;;7.90;90.50;;;;;;10374175;28;20625;-82
2023/04/10 01:50:22;;;;;;;13.87;12.57;;;7.80;90.60;;;;;;10374744;28;20235;-81
2023/04/10 01:55:26;;;;;;;13.83;12.60;;;7.70;90.90;;;;;;10375594;28;20579;-82
2023/04/10 02:00:42;;;;;;;14.47;13.03;;;7.70;90.50;;;;;;10376419;28;20267;-82
2023/04/10 02:05:54;;;;;;;13.43;12.23;;;7.50;91.00;;;;;;10387074;28;20600;-83
2023/04/10 02:11:07;;;;;;;12.73;11.63;;;7.60;90.90;;;;;;10373101;28;20340;-81
2023/04/10 02:16:14;;;;;;;12.90;11.70;;;7.50;91.10;;;;;;10376166;28;20632;-80
2023/04/10 02:21:16;;;;;;;13.20;11.90;;;7.50;91.50;;;;;;10359580;28;20224;-82
2023/04/10 02:26:18;;;;;;;12.70;11.57;;;7.50;91.30;;;;;;10377594;28;20671;-82
2023/04/10 02:31:24;;;;;;;11.87;10.87;;;7.40;91.30;;;;;;10382603;28;20503;-82
2023/04/10 02:36:26;;;;;;;12.03;10.93;;;7.40;91.00;;;;;;10383241;28;20242;-81
2023/04/10 02:41:31;;;;;;;12.00;10.80;;;7.30;91.00;;;;;;10379295;28;20612;-82
2023/04/10 02:46:37;;;;;;;12.87;11.57;;;7.30;91.20;;;;;;10362545;28;20663;-80
2023/04/10 02:51:40;;;;;;;12.60;11.50;;;7.20;91.40;;;;;;10363153;28;20252;-82
2023/04/10 02:56:42;;;;;;;11.70;10.63;;;7.20;91.50;;;;;;10387496;28;20542;-82
2023/04/10 03:01:46;;;;;;;12.80;11.50;;;7.20;91.70;;;;;;10377015;28;20467;-81
2023/04/10 03:06:48;;;;;;;12.20;11.10;;;7.20;91.50;;;;;;10363485;28;20238;-81
2023/04/10 03:11:50;;;;;;;11.33;10.27;;;7.20;92.00;;;;;;10377841;28;20233;-80
2023/04/10 03:16:54;;;;;;;12.10;11.00;;;7.30;91.40;;;;;;10378173;28;20225;-81
2023/04/10 03:21:56;;;;;;;12.10;11.10;;;7.20;91.50;;;;;;10378546;28;20655;-81
2023/04/10 03:26:59;;;;;;;11.97;10.87;;;7.20;91.40;;;;;;10379825;28;20234;-80
2023/04/10 03:32:02;;;;;;;12.33;11.23;;;7.10;91.80;;;;;;10361253;28;20218;-80
2023/04/10 03:37:07;;;;;;;11.70;10.70;;;7.00;91.60;;;;;;10377365;28;20246;-82
2023/04/10 03:42:10;;;;;;;11.80;10.80;;;7.00;92.00;;;;;;10377724;28;20199;-81
2023/04/10 03:47:14;;;;;;;11.60;10.60;;;7.00;92.30;;;;;;10377249;28;20699;-82
2023/04/10 03:52:19;;;;;;;13.03;11.87;;;7.00;92.10;;;;;;10360170;28;20215;-82
2023/04/10 03:57:21;;;;;;;13.07;11.97;;;7.00;92.10;;;;;;10379981;28;20219;-80
2023/04/10 04:02:26;;;;;;;13.30;12.10;;;7.00;92.30;;;;;;10386907;28;20195;-82
2023/04/10 04:07:29;;;;;;;12.57;11.47;;;7.10;92.40;;;;;;10359074;28;20657;-83
2023/04/10 04:12:50;;;;;;;12.27;11.07;;;7.10;92.50;;;;;;10378414;28;20306;-82
2023/04/10 04:18:04;;;;;;;11.53;10.50;;;7.10;92.20;;;;;;10379101;28;20274;-81
2023/04/10 04:23:18;;;;;;;11.93;10.83;;;7.10;92.30;;;;;;10380194;28;20229;-83
2023/04/10 04:28:43;;;;;;;13.17;11.97;;;7.10;91.90;;;;;;10382393;28;20247;-83
2023/04/10 04:34:15;;;;;;;13.13;11.87;;;7.10;92.50;;;;;;10378296;28;20227;-80
2023/04/10 04:39:25;;;;;;;11.87;10.83;;;7.10;92.80;;;;;;10377889;28;20217;-79
2023/04/10 04:44:45;;;;;;;10.77;9.77;;;7.20;93.30;;;;;;10379006;28;20195;-79
2023/04/10 04:49:55;;;;;;;12.43;11.27;;;7.40;92.70;;;;;;10375915;28;20221;-81
2023/04/10 04:54:57;;;;;;;12.80;11.50;;;7.50;91.90;;;;;;10376028;28;20568;-80
2023/04/10 05:00:28;;;;;;;16.47;14.87;;;7.50;92.10;;;;;;10367418;28;20204;-81
2023/04/10 05:05:31;;;;;;;14.67;13.27;;;7.50;92.30;;;;;;10373325;28;20225;-82
2023/04/10 05:10:44;;;;;;;17.00;15.30;;;7.60;92.40;;;;;;10374413;28;20271;-80
2023/04/10 05:16:08;;;;;;;34.73;21.47;;;7.60;92.00;;;;;;10373926;28;20223;-79
2023/04/10 05:21:32;;;;;;;42.90;21.00;;;7.60;91.90;;;;;;10372554;28;20201;-80
2023/04/10 05:27:00;;;;;;;63.10;26.33;;;7.50;92.50;;;;;;10367282;28;20227;-79
2023/04/10 05:32:41;;;;;;;31.07;18.10;;;7.50;92.70;;;;;;10342941;28;20236;-81
2023/04/10 05:37:57;;;;;;;30.13;18.20;;;7.60;92.70;;;;;;10374548;28;20241;-81
2023/04/10 05:43:20;;;;;;;12.30;11.20;;;7.70;92.60;;;;;;10375827;28;20229;-79
2023/04/10 05:48:41;;;;;;;13.43;12.23;;;7.80;92.20;;;;;;10375469;28;20237;-81
2023/04/10 05:54:13;;;;;;;14.57;13.27;;;7.90;92.80;;;;;;10374348;28;20269;-81
2023/04/10 05:59:35;;;;;;;14.10;12.70;;;8.00;92.70;;;;;;10350971;28;20632;-81
2023/04/10 06:04:57;;;;;;;12.93;11.73;;;8.10;92.20;;;;;;10370156;28;20210;-81
2023/04/10 06:10:01;;;;;;;13.67;12.47;;;8.20;92.60;;;;;;10400266;28;20235;-80
2023/04/10 06:15:06;;;;;;;14.27;12.93;;;8.40;92.70;;;;;;10373956;28;20233;-79
2023/04/10 06:20:11;;;;;;;14.67;13.30;;;8.50;92.70;;;;;;10393259;28;20268;-80
2023/04/10 06:25:15;;;;;;;14.27;12.97;;;8.60;92.80;;;;;;10367295;28;20230;-81
2023/04/10 06:30:17;;;;;;;14.57;13.27;;;8.80;92.50;;;;;;10383533;28;20586;-81
2023/04/10 06:35:20;;;;;;;15.23;13.83;;;8.80;92.10;;;;;;10385981;28;20550;-83
2023/04/10 06:40:24;;;;;;;14.47;13.17;;;8.90;92.00;;;;;;10378421;28;20188;-79
2023/04/10 06:45:26;;;;;;;15.10;13.70;;;9.00;92.10;;;;;;10381610;28;20578;-81
2023/04/10 06:50:28;;;;;;;14.37;13.00;;;9.00;91.50;;;;;;10385609;28;20191;-81
2023/04/10 06:55:31;;;;;;;14.03;12.73;;;9.10;91.50;;;;;;10388954;28;20548;-79
2023/04/10 07:00:33;;;;;;;15.30;13.80;;;9.10;91.50;;;;;;10391464;28;20225;-79
2023/04/10 07:05:35;;;;;;;14.30;13.00;;;9.10;92.10;;;;;;10412359;28;20294;-81
2023/04/10 07:10:39;;;;;;;14.43;13.13;;;9.20;92.20;;;;;;10401375;28;20220;-81
2023/04/10 07:15:41;;;;;;;14.07;12.73;;;9.20;91.80;;;;;;10402732;28;20295;-81
2023/04/10 07:20:43;;;;;;;14.17;12.87;;;9.30;91.90;;;;;;10393951;28;20206;-79
2023/04/10 07:25:46;;;;;;;14.30;13.00;;;9.40;91.40;;;;;;10378680;28;20297;-81
2023/04/10 07:30:48;;;;;;;11.20;10.10;;;9.40;92.20;;;;;;10379341;28;20234;-80
2023/04/10 07:35:50;;;;;;;12.50;11.30;;;9.50;91.20;;;;;;10381598;28;20617;-81
2023/04/10 07:40:57;;;;;;;11.67;10.57;;;9.70;88.90;;;;;;10381926;28;20202;-81
2023/04/10 07:45:59;;;;;;;11.93;10.73;;;9.90;84.50;;;;;;10385804;28;20233;-80
2023/04/10 07:51:02;;;;;;;13.17;11.87;;;10.10;86.40;;;;;;10379829;28;20652;-80
2023/04/10 07:56:07;;;;;;;9.83;8.93;;;10.20;88.00;;;;;;10381567;28;20644;-80
2023/04/10 08:01:09;;;;;;;7.50;6.73;;;10.60;79.80;;;;;;10383195;28;20195;-82
2023/04/10 08:06:12;;;;;;;8.23;7.53;;;10.90;78.90;;;;;;10382210;28;20234;-81
2023/04/10 08:11:26;;;;;;;8.43;7.77;;;11.40;77.50;;;;;;10383577;28;20215;-80
2023/04/10 08:16:30;;;;;;;7.47;6.87;;;11.70;77.20;;;;;;10390196;28;20706;-80
2023/04/10 08:21:32;;;;;;;11.43;10.43;;;12.00;77.90;;;;;;10378350;28;20229;-80
2023/04/10 08:26:36;;;;;;;6.63;6.13;;;12.20;79.00;;;;;;10386640;28;20221;-80
2023/04/10 08:31:38;;;;;;;7.27;6.67;;;12.50;76.90;;;;;;10380437;28;20209;-82
2023/04/10 08:36:40;;;;;;;6.27;5.87;;;12.80;75.50;;;;;;10391749;28;20541;-81
2023/04/10 08:41:43;;;;;;;7.50;6.80;;;13.10;71.30;;;;;;10383392;28;20205;-82
2023/04/10 08:46:45;;;;;;;5.87;5.47;;;13.20;70.60;;;;;;10378947;28;20269;-81
2023/04/10 08:51:55;;;;;;;6.80;6.30;;;13.40;70.80;;;;;;10394850;28;20601;-81
2023/04/10 08:57:00;;;;;;;5.50;5.10;;;13.70;69.50;;;;;;10418849;28;20651;-81
2023/04/10 09:02:02;;;;;;;5.20;4.80;;;13.90;69.30;;;;;;10385651;28;20259;-80
2023/04/10 09:07:05;;;;;;;5.97;5.57;;;14.00;71.60;;;;;;10380089;28;20231;-82
2023/04/10 09:12:08;;;;;;;4.73;4.43;;;14.30;66.30;;;;;;10380005;28;20238;-82
2023/04/10 09:17:16;;;;;;;5.80;5.40;;;14.40;67.40;;;;;;10390404;28;20220;-82
2023/04/10 09:22:19;;;;;;;6.43;4.80;;;14.50;64.80;;;;;;10399603;28;20282;-81
2023/04/10 09:27:34;;;;;;;5.13;4.73;;;14.70;65.80;;;;;;10395522;28;20215;-83
2023/04/10 09:32:38;;;;;;;5.00;4.60;;;14.90;67.40;;;;;;10357899;28;20211;-82
2023/04/10 09:37:41;;;;;;;5.60;5.20;;;15.20;62.80;;;;;;10398531;28;20426;-83
2023/04/10 09:42:44;;;;;;;4.47;4.17;;;15.40;66.90;;;;;;10385559;28;20274;-82
2023/04/10 09:48:02;;;;;;;4.50;4.10;;;15.70;63.30;;;;;;10383951;28;20748;-82
2023/04/10 09:53:04;;;;;;;4.33;4.03;;;15.90;62.50;;;;;;10381579;28;20227;-83
2023/04/10 09:58:08;;;;;;;4.50;4.20;;;16.10;60.00;;;;;;10381111;28;20215;-84
2023/04/10 10:03:12;;;;;;;5.63;5.13;;;16.30;61.20;;;;;;10383258;28;20192;-83
2023/04/10 10:08:15;;;;;;;5.90;5.40;;;16.60;59.50;;;;;;10364781;28;20233;-84
2023/04/10 10:13:26;;;;;;;4.70;4.40;;;16.70;61.60;;;;;;10378266;28;21058;-84
2023/04/10 10:18:38;;;;;;;4.63;4.33;;;16.70;60.30;;;;;;10382593;28;20226;-82
2023/04/10 10:23:42;;;;;;;6.33;5.80;;;16.50;59.40;;;;;;10396166;28;20274;-84
2023/04/10 10:28:47;;;;;;;4.10;3.80;;;16.40;58.10;;;;;;10398042;28;20273;-84
2023/04/10 10:33:52;;;;;;;3.83;3.63;;;16.10;59.40;;;;;;10412224;28;20309;-83
2023/04/10 10:39:03;;;;;;;3.30;3.10;;;16.00;58.20;;;;;;10385921;28;20301;-83
2023/04/10 10:44:16;;;;;;;3.47;3.27;;;16.10;56.70;;;;;;10386150;28;20294;-83
2023/04/10 10:49:18;;;;;;;2.80;2.60;;;16.00;56.90;;;;;;10390314;28;20237;-84
2023/04/10 10:54:31;;;;;;;7.03;6.33;;;16.00;55.40;;;;;;10405108;28;20311;-83
2023/04/10 10:59:56;;;;;;;3.03;2.87;;;16.20;54.10;;;;;;10389620;28;20214;-84
2023/04/10 11:04:58;;;;;;;2.93;2.73;;;16.40;53.90;;;;;;10389839;28;20685;-83
2023/04/10 11:10:00;;;;;;;2.20;2.10;;;16.60;53.50;;;;;;10393722;28;20686;-83
2023/04/10 11:15:04;;;;;;;2.30;2.20;;;16.80;52.20;;;;;;10372184;28;20215;-82
2023/04/10 11:20:07;;;;;;;2.40;2.30;;;16.90;51.90;;;;;;10390072;28;20670;-83
2023/04/10 11:25:10;;;;;;;2.93;2.73;;;16.80;53.10;;;;;;10382398;28;20195;-83
2023/04/10 11:30:33;;;;;;;2.23;2.13;;;16.70;51.90;;;;;;10383542;28;20686;-83
2023/04/10 11:35:35;;;;;;;2.87;2.63;;;16.60;50.50;;;;;;10392742;28;20303;-83
2023/04/10 11:40:55;;;;;;;3.90;3.20;;;16.50;49.80;;;;;;10384314;28;20192;-83
2023/04/10 11:46:04;;;;;;;2.70;2.10;;;16.30;51.80;;;;;;10382722;28;20219;-83
2023/04/10 11:51:10;;;;;;;2.40;2.20;;;16.20;52.80;;;;;;10369182;28;20310;-83
2023/04/10 11:56:17;;;;;;;2.40;2.23;;;16.10;52.20;;;;;;10369310;28;20219;-82
2023/04/10 12:01:23;;;;;;;2.33;2.20;;;16.10;49.10;;;;;;10386129;28;20230;-83
2023/04/10 12:06:26;;;;;;;4.40;3.20;;;16.20;48.40;;;;;;10393517;28;20242;-82
2023/04/10 12:11:28;;;;;;;3.10;2.70;;;16.30;49.40;;;;;;10397182;28;20195;-83
2023/04/10 12:16:32;;;;;;;1.97;1.87;;;16.10;50.40;;;;;;10368289;28;20666;-83
2023/04/10 12:21:36;;;;;;;1.50;1.50;;;16.10;49.30;;;;;;10387394;28;20222;-84
2023/04/10 12:26:38;;;;;;;1.60;1.50;;;16.30;43.80;;;;;;10395070;28;20215;-83
2023/04/10 12:31:42;;;;;;;1.50;1.43;;;16.30;44.80;;;;;;10386067;28;20234;-82
2023/04/10 12:36:52;;;;;;;1.60;1.50;;;16.40;45.90;;;;;;10372315;28;20274;-81
2023/04/10 12:42:10;;;;;;;1.93;1.83;;;16.70;44.60;;;;;;10379140;28;20210;-83
2023/04/10 12:47:13;;;;;;;2.03;1.90;;;16.80;44.70;;;;;;10378320;28;20211;-81
2023/04/10 12:52:22;;;;;;;1.70;1.60;;;17.00;43.60;;;;;;10380305;28;20222;-83
2023/04/10 12:57:27;;;;;;;2.20;2.10;;;17.10;45.60;;;;;;10380053;28;20222;-83
2023/04/10 13:02:30;;;;;;;1.93;1.83;;;17.30;44.40;;;;;;10378419;28;20192;-81
2023/04/10 13:07:36;;;;;;;2.20;2.10;;;17.50;44.50;;;;;;10377098;28;20637;-81
2023/04/10 13:12:39;;;;;;;1.80;1.70;;;17.60;45.50;;;;;;10361620;28;20207;-83
2023/04/10 13:17:42;;;;;;;1.97;1.87;;;17.80;45.80;;;;;;10391590;28;20218;-82
2023/04/10 13:22:45;;;;;;;21.80;14.93;;;18.00;43.50;;;;;;10365999;28;20187;-82
2023/04/10 13:27:47;;;;;;;4.30;3.90;;;18.10;43.50;;;;;;10379933;28;20229;-83
2023/04/10 13:32:50;;;;;;;1.83;1.73;;;18.20;45.60;;;;;;10390994;28;20813;-84
2023/04/10 13:37:53;;;;;;;2.40;2.30;;;18.20;46.80;;;;;;10401645;28;20206;-83
2023/04/10 13:42:55;;;;;;;2.00;1.90;;;18.20;46.80;;;;;;10401137;28;20191;-83
2023/04/10 13:47:58;;;;;;;2.40;2.30;;;18.30;44.70;;;;;;10396002;28;20211;-83
2023/04/10 13:53:00;;;;;;;2.47;2.37;;;18.20;45.00;;;;;;10405491;28;20235;-83
2023/04/10 13:58:02;;;;;;;2.60;2.50;;;18.10;45.90;;;;;;10365114;28;20223;-82
2023/04/10 14:03:08;;;;;;;2.63;2.40;;;18.20;45.40;;;;;;10379632;28;20202;-83
2023/04/10 14:08:13;;;;;;;2.03;1.93;;;18.20;45.00;;;;;;10385478;28;20237;-83
2023/04/10 14:13:15;;;;;;;2.63;2.43;;;18.20;45.50;;;;;;10379262;28;20231;-82
2023/04/10 14:18:19;;;;;;;2.50;2.40;;;18.20;45.00;;;;;;10378655;28;20246;-83
2023/04/10 14:23:21;;;;;;;2.10;2.00;;;18.30;45.60;;;;;;10382646;28;20192;-83
2023/04/10 14:28:23;;;;;;;2.00;1.90;;;18.20;47.20;;;;;;10391492;28;20223;-82
2023/04/10 14:33:27;;;;;;;2.10;2.00;;;18.30;46.20;;;;;;10393021;28;20659;-82
2023/04/10 14:38:29;;;;;;;2.67;2.53;;;18.30;48.60;;;;;;10406347;28;20219;-84
2023/04/10 14:43:31;;;;;;;2.20;2.10;;;18.40;45.90;;;;;;10376614;28;20191;-84
2023/04/10 14:48:34;;;;;;;2.40;2.30;;;18.30;46.70;;;;;;10385590;28;20261;-84
2023/04/10 14:53:36;;;;;;;2.20;2.10;;;18.40;45.60;;;;;;10367521;28;20218;-83
2023/04/10 14:58:38;;;;;;;2.00;1.90;;;18.30;46.50;;;;;;10387149;28;20642;-83
2023/04/10 15:03:42;;;;;;;2.10;2.00;;;18.30;46.10;;;;;;10371230;28;20667;-84
2023/04/10 15:08:46;;;;;;;1.90;1.80;;;18.30;46.00;;;;;;10423736;23;20289;-83
2023/04/10 15:13:51;;;;;;;2.30;2.20;;;18.30;46.00;;;;;;10383230;28;20219;-80
2023/04/10 15:18:55;;;;;;;2.40;2.30;;;18.20;46.60;;;;;;10394106;28;20217;-83
2023/04/10 15:23:59;;;;;;;2.43;2.23;;;18.10;48.60;;;;;;10385030;28;20198;-83
2023/04/10 15:29:02;;;;;;;4.77;4.00;;;18.10;46.50;;;;;;10400835;28;20249;-83
2023/04/10 15:34:05;;;;;;;3.93;3.63;;;18.10;46.60;;;;;;10402329;28;20210;-82
2023/04/10 15:39:07;;;;;;;3.20;3.00;;;18.10;46.70;;;;;;10398671;28;20753;-81
2023/04/10 15:44:09;;;;;;;2.93;2.73;;;18.00;46.90;;;;;;10367786;28;20224;-81
2023/04/10 15:49:13;;;;;;;2.40;2.20;;;18.10;47.20;;;;;;10399101;28;20242;-81
2023/04/10 15:54:15;;;;;;;2.10;2.00;;;18.00;48.20;;;;;;10396384;28;20221;-81
2023/04/10 15:59:19;;;;;;;2.70;2.60;;;18.00;49.30;;;;;;10408202;28;20254;-81
2023/04/10 16:04:22;;;;;;;2.10;2.00;;;18.00;48.50;;;;;;10384824;28;20304;-81
2023/04/10 16:09:24;;;;;;;3.00;2.80;;;18.00;48.10;;;;;;10385407;28;20285;-81
2023/04/10 16:14:27;;;;;;;3.93;3.63;;;18.00;49.00;;;;;;10385434;28;20219;-81
2023/04/10 16:19:31;;;;;;;2.47;2.27;;;17.90;50.00;;;;;;10386287;28;20736;-81
2023/04/10 16:24:33;;;;;;;2.70;2.50;;;17.90;50.10;;;;;;10372003;28;20560;-80
2023/04/10 16:29:35;;;;;;;2.73;2.57;;;17.90;50.10;;;;;;10381790;28;20242;-81
2023/04/10 16:34:39;;;;;;;2.97;2.77;;;17.90;50.50;;;;;;10381191;28;20219;-80
2023/04/10 16:39:41;;;;;;;2.80;2.60;;;17.90;50.80;;;;;;10380052;28;20223;-81
2023/04/10 16:44:43;;;;;;;3.00;2.80;;;17.90;50.50;;;;;;10376060;28;20199;-81
2023/04/10 16:49:46;;;;;;;2.90;2.70;;;17.80;51.20;;;;;;10358137;28;20221;-81
2023/04/10 16:54:49;;;;;;;3.20;2.90;;;17.70;51.30;;;;;;10376482;28;20309;-82
2023/04/10 16:59:55;;;;;;;2.70;2.50;;;17.60;52.10;;;;;;10382103;28;20246;-80
2023/04/10 17:04:59;;;;;;;2.30;2.20;;;17.50;52.00;;;;;;10377827;28;20290;-80
2023/04/10 17:10:01;;;;;;;2.33;2.07;;;17.40;54.10;;;;;;10358684;28;20235;-81
2023/04/10 17:15:04;;;;;;;2.43;2.33;;;17.20;55.30;;;;;;10373944;28;20211;-83
2023/04/10 17:20:08;;;;;;;4.10;3.80;;;17.10;53.20;;;;;;10359039;28;21181;-80
2023/04/10 17:25:11;;;;;;;2.10;2.00;;;16.90;54.80;;;;;;10378143;28;20202;-81
2023/04/10 17:30:14;;;;;;;4.00;3.80;;;16.80;55.90;;;;;;10362251;28;20306;-81
2023/04/10 17:35:17;;;;;;;2.60;2.40;;;16.70;54.10;;;;;;10358128;28;20629;-80
2023/04/10 17:40:20;;;;;;;2.97;2.77;;;16.70;55.00;;;;;;10360990;28;20226;-80
2023/04/10 17:45:22;;;;;;;2.40;2.30;;;16.60;56.40;;;;;;10377208;28;20195;-81
2023/04/10 17:50:27;;;;;;;2.47;2.37;;;16.50;57.50;;;;;;10377648;28;20297;-81
2023/04/10 17:55:29;;;;;;;3.20;3.00;;;16.50;56.50;;;;;;10379130;28;20860;-81
2023/04/10 18:00:31;;;;;;;3.63;3.43;;;16.40;57.20;;;;;;10385954;28;20291;-82
2023/04/10 18:05:35;;;;;;;3.50;3.20;;;16.30;57.70;;;;;;10387366;28;20196;-81
2023/04/10 18:10:38;;;;;;;4.03;3.73;;;16.30;58.60;;;;;;10387154;28;20199;-79
2023/04/10 18:15:40;;;;;;;4.83;4.53;;;16.20;58.90;;;;;;10388619;28;20568;-81
2023/04/10 18:20:43;;;;;;;3.73;3.27;;;16.10;59.30;;;;;;10391726;28;20199;-81
2023/04/10 18:25:52;;;;;;;3.37;3.17;;;16.00;59.40;;;;;;10387327;28;20199;-82
2023/04/10 18:30:57;;;;;;;3.70;3.40;;;15.90;60.10;;;;;;10388977;28;20573;-79
2023/04/10 18:36:02;;;;;;;3.20;3.00;;;15.80;59.20;;;;;;10387423;28;20580;-81
2023/04/10 18:41:04;;;;;;;3.93;3.57;;;15.70;59.30;;;;;;10407948;28;20579;-79
2023/04/10 18:46:06;;;;;;;3.10;2.90;;;15.70;58.90;;;;;;10383516;28;20216;-79
2023/04/10 18:51:11;;;;;;;3.50;3.30;;;15.70;58.80;;;;;;10382400;28;20714;-81
2023/04/10 18:56:13;;;;;;;2.83;2.70;;;15.60;59.30;;;;;;10339644;28;20255;-81
2023/04/10 19:01:16;;;;;;;4.60;4.20;;;15.60;59.60;;;;;;10358379;28;20199;-81
2023/04/10 19:06:22;;;;;;;2.80;2.60;;;15.50;59.90;;;;;;10385289;28;20245;-81
2023/04/10 19:11:24;;;;;;;2.50;2.40;;;15.50;60.10;;;;;;10383919;28;20203;-81
2023/04/10 19:16:26;;;;;;;2.63;2.47;;;15.40;60.30;;;;;;10384301;28;20222;-81
2023/04/10 19:21:31;;;;;;;2.60;2.50;;;15.30;60.30;;;;;;10385271;28;20215;-81
2023/04/10 19:26:33;;;;;;;2.80;2.60;;;15.20;60.60;;;;;;10383444;28;20216;-81
2023/04/10 19:31:35;;;;;;;2.90;2.70;;;15.20;60.30;;;;;;10385542;28;20675;-81
2023/04/10 19:36:38;;;;;;;3.30;3.10;;;15.10;59.90;;;;;;10371344;28;20227;-81
2023/04/10 19:41:41;;;;;;;2.40;2.30;;;15.10;59.60;;;;;;10384734;28;20571;-81
2023/04/10 19:46:43;;;;;;;2.70;2.50;;;15.10;59.60;;;;;;10380086;28;20211;-81
2023/04/10 19:51:47;;;;;;;4.10;2.80;;;15.10;59.50;;;;;;10377636;28;20210;-81
2023/04/10 19:56:49;;;;;;;3.30;3.10;;;15.00;59.80;;;;;;10373842;28;20227;-81
2023/04/10 20:01:51;;;;;;;3.83;2.80;;;15.00;59.70;;;;;;10378788;28;20664;-81
2023/04/10 20:06:54;;;;;;;4.03;3.27;;;15.00;59.50;;;;;;10372193;28;20290;-81
2023/04/10 20:11:56;;;;;;;3.10;2.90;;;14.90;60.40;;;;;;10374245;28;20195;-81
2023/04/10 20:16:59;;;;;;;3.00;2.80;;;14.90;61.10;;;;;;10382072;28;20631;-81
2023/04/10 20:22:02;;;;;;;3.40;3.20;;;15.00;61.50;;;;;;10392014;28;20299;-81
2023/04/10 20:27:04;;;;;;;3.20;2.90;;;15.00;62.00;;;;;;10365771;28;20220;-81
2023/04/10 20:32:08;;;;;;;3.60;3.33;;;15.10;63.70;;;;;;10390708;28;20574;-81
2023/04/10 20:37:12;;;;;;;3.40;3.13;;;15.10;64.20;;;;;;10380621;28;20235;-80
2023/04/10 20:42:15;;;;;;;3.53;3.30;;;15.10;65.00;;;;;;10374649;28;20195;-81
2023/04/10 20:47:17;;;;;;;3.40;3.20;;;15.10;65.70;;;;;;10367928;28;20250;-80
2023/04/10 20:52:21;;;;;;;3.13;3.00;;;15.20;64.70;;;;;;10356560;28;20205;-81
2023/04/10 20:57:23;;;;;;;5.00;3.33;;;15.30;65.00;;;;;;10375501;28;20250;-81
2023/04/10 21:02:25;;;;;;;3.33;3.07;;;15.30;65.60;;;;;;10379219;28;20199;-81
2023/04/10 21:07:29;;;;;;;3.20;3.00;;;15.30;65.10;;;;;;10374897;28;20254;-81
2023/04/10 21:12:31;;;;;;;3.13;2.87;;;15.30;65.70;;;;;;10375683;28;20199;-82
2023/04/10 21:17:33;;;;;;;3.50;3.30;;;15.30;65.10;;;;;;10373691;28;20265;-81
2023/04/10 21:22:36;;;;;;;3.73;3.50;;;15.40;63.80;;;;;;10373248;28;20195;-82
2023/04/10 21:27:38;;;;;;;2.90;2.80;;;15.40;64.10;;;;;;10382076;28;20215;-80
2023/04/10 21:32:40;;;;;;;3.70;3.40;;;15.50;63.50;;;;;;10376564;28;20195;-81
2023/04/10 21:37:44;;;;;;;3.20;3.00;;;15.50;63.60;;;;;;10378303;28;20749;-80
2023/04/10 21:42:46;;;;;;;3.90;3.60;;;15.50;64.40;;;;;;10380063;28;20387;-82
2023/04/10 21:47:48;;;;;;;4.80;4.50;;;15.50;63.90;;;;;;10380609;28;20230;-82
2023/04/10 21:52:52;;;;;;;3.97;3.50;;;15.50;64.50;;;;;;10379473;28;20199;-83
2023/04/10 21:57:54;;;;;;;4.60;4.30;;;15.40;64.40;;;;;;10362337;28;20250;-82
2023/04/10 22:02:56;;;;;;;3.63;3.33;;;15.50;64.90;;;;;;10379228;28;20741;-82
2023/04/10 22:07:59;;;;;;;2.90;2.70;;;15.40;65.20;;;;;;10379680;28;20242;-82
2023/04/10 22:13:02;;;;;;;3.03;2.83;;;15.50;65.20;;;;;;10382230;28;20810;-82
2023/04/10 22:18:04;;;;;;;3.03;2.83;;;15.50;64.40;;;;;;10366284;28;20250;-83
2023/04/10 22:23:08;;;;;;;3.00;2.80;;;15.50;64.60;;;;;;10388408;28;20283;-79
2023/04/10 22:28:10;;;;;;;5.37;3.70;;;15.40;65.00;;;;;;10386919;28;20211;-78
2023/04/10 22:33:12;;;;;;;3.13;2.93;;;15.40;65.70;;;;;;10403113;28;20227;-78
2023/04/10 22:38:15;;;;;;;3.20;3.00;;;15.30;66.30;;;;;;10378731;28;20298;-80
2023/04/10 22:43:17;;;;;;;6.20;3.13;;;15.40;65.50;;;;;;10374691;28;20253;-79
2023/04/10 22:48:19;;;;;;;3.03;2.83;;;15.30;65.90;;;;;;10386486;28;20263;-80
2023/04/10 22:53:23;;;;;;;3.60;3.30;;;15.30;65.70;;;;;;10376384;28;20196;-77
2023/04/10 22:58:25;;;;;;;2.77;2.60;;;15.20;66.70;;;;;;10336430;28;20711;-79
2023/04/10 23:03:27;;;;;;;3.20;3.00;;;15.20;66.50;;;;;;10376870;28;20635;-78
2023/04/10 23:08:33;;;;;;;2.50;2.30;;;15.20;67.20;;;;;;10381474;28;20703;-78
2023/04/10 23:13:35;;;;;;;2.90;2.70;;;15.10;67.70;;;;;;10359804;28;20226;-80
2023/04/10 23:18:37;;;;;;;3.03;2.83;;;15.10;68.00;;;;;;10363110;28;20234;-79
2023/04/10 23:23:40;;;;;;;3.00;2.80;;;15.00;68.60;;;;;;10377206;28;20202;-79
2023/04/10 23:28:42;;;;;;;2.43;2.33;;;15.00;68.80;;;;;;10374616;28;20215;-81
2023/04/10 23:33:45;;;;;;;4.50;2.97;;;15.00;68.90;;;;;;10360436;28;20629;-79
2023/04/10 23:38:48;;;;;;;3.20;2.60;;;15.00;69.80;;;;;;10377552;28;20595;-81
2023/04/10 23:43:50;;;;;;;3.57;2.63;;;15.10;70.00;;;;;;10380563;28;20198;-80
2023/04/10 23:48:54;;;;;;;4.27;2.60;;;15.10;70.40;;;;;;10378507;28;20215;-80
2023/04/10 23:53:58;;;;;;;2.60;2.40;;;15.10;70.60;;;;;;10373405;28;20207;-81
2023/04/10 23:59:00;;;;;;;2.30;2.20;;;15.10;70.90;;;;;;10378617;28;20707;-79
